WXM80 ListenWXM80 Stop

You find our weather info also at:

UK Metoffice

WeatherCloud

Weather Underground

Northeastern Weather Network

AWEKAS

Citizen Weather Observer Program (CWOP)

HAMweather, WeatherForYou, PWS Weather


Weather Underground History page Text

Daily Summary for February 19, 2018 Units:  Both    English   Metric
« Previous Day
Next Day »
Daily Weekly Monthly Yearly Custom
  Current: High: Low: Average:
Temperature: 49.1 °F /  9.5 °C 52.6 °F /  11.4 °C 30.4 °F /  -0.9 °C 40.5 °F /  4.7 °C
Dew Point: 44.8 °F /  7.1 °C 44.9 °F /  7.2 °C 26.2 °F /  -3.2 °C 34.7 °F /  1.5 °C
Humidity: 85 % 94 % 66 % 80 %
Wind Speed: 3.2 mph /  5.1 km/h 10.7 mph /  17.2 km/h - 2.7 mph /  4.3 km/h
Wind Gust: 6.9 mph /  11.1 km/h 16.1 mph /  25.9 km/h - -
Wind:SSW - - South
Pressure: 30.14 in /  1020.5 hPa 30.29 in /  1025.6 hPa 30.13 in /  1020.2 hPa -
Precipitation: 0.00 in /  0 mm      
Historical Graphs
 
 
Tabular Data for February 19, 2018
Time Temperature Dew Point Pressure Wind Wind Speed Wind Gust Humidity Rainfall Rate (Hourly)
00:00 30.4 °F /  -0.9 °C 27.5 °F /  -2.5 °C 30.28 in /  1025.3 hPa East 1.2 mph /  1.9 km/h 2.3 mph /  3.7 km/h 89 % 0.00 in /  0 mm
00:05 30.5 °F /  -0.8 °C 27.6 °F /  -2.4 °C 30.27 in /  1024.9 hPa East 1.0 mph /  1.6 km/h 2.3 mph /  3.7 km/h 89 % 0.00 in /  0 mm
00:06 30.5 °F /  -0.8 °C 27.6 °F /  -2.4 °C 30.27 in /  1024.9 hPa East 1.9 mph /  3.1 km/h 3.5 mph /  5.6 km/h 89 % 0.00 in /  0 mm
00:11 30.8 °F /  -0.7 °C 27.9 °F /  -2.3 °C 30.28 in /  1025.3 hPa East 2.2 mph /  3.5 km/h 3.5 mph /  5.6 km/h 89 % 0.00 in /  0 mm
00:16 31.0 °F /  -0.6 °C 27.9 °F /  -2.3 °C 30.27 in /  1024.9 hPa ESE 1.3 mph /  2.1 km/h 3.5 mph /  5.6 km/h 88 % 0.00 in /  0 mm
00:21 31.3 °F /  -0.4 °C 28.2 °F /  -2.1 °C 30.28 in /  1025.3 hPa East 0.2 mph /  0.3 km/h 1.2 mph /  1.9 km/h 88 % 0.00 in /  0 mm
00:27 31.4 °F /  -0.3 °C 28.0 °F /  -2.2 °C 30.28 in /  1025.3 hPa East 0.2 mph /  0.3 km/h 1.2 mph /  1.9 km/h 87 % 0.00 in /  0 mm
00:32 31.6 °F /  -0.2 °C 28.2 °F /  -2.1 °C 30.28 in /  1025.3 hPa SE 1.3 mph /  2.1 km/h 4.6 mph /  7.4 km/h 87 % 0.00 in /  0 mm
00:37 31.7 °F /  -0.2 °C 28.0 °F /  -2.2 °C 30.28 in /  1025.3 hPa SE 2.3 mph /  3.7 km/h 3.5 mph /  5.6 km/h 86 % 0.00 in /  0 mm
00:42 31.9 °F /  -0.1 °C 27.9 °F /  -2.3 °C 30.28 in /  1025.3 hPa SSE 2.3 mph /  3.7 km/h 4.6 mph /  7.4 km/h 85 % 0.00 in /  0 mm
00:47 32.1 °F /  0.1 °C 27.8 °F /  -2.3 °C 30.28 in /  1025.3 hPa ESE 0.3 mph /  0.5 km/h 2.3 mph /  3.7 km/h 84 % 0.00 in /  0 mm
00:52 32.3 °F /  0.2 °C 27.7 °F /  -2.4 °C 30.28 in /  1025.3 hPa SE 2.7 mph /  4.3 km/h 5.8 mph /  9.3 km/h 83 % 0.00 in /  0 mm
00:57 32.4 °F /  0.2 °C 27.5 °F /  -2.5 °C 30.28 in /  1025.3 hPa SE 1.2 mph /  1.9 km/h 3.5 mph /  5.6 km/h 82 % 0.00 in /  0 mm
01:02 32.5 °F /  0.3 °C 27.3 °F /  -2.6 °C 30.28 in /  1025.3 hPa SSE 3.1 mph /  5 km/h 3.5 mph /  5.6 km/h 81 % 0.00 in /  0 mm
01:07 32.6 °F /  0.3 °C 27.4 °F /  -2.6 °C 30.27 in /  1024.9 hPa SE 2.3 mph /  3.7 km/h 3.5 mph /  5.6 km/h 81 % 0.00 in /  0 mm
01:12 32.8 °F /  0.4 °C 27.3 °F /  -2.6 °C 30.28 in /  1025.3 hPa SE 2.1 mph /  3.4 km/h 4.6 mph /  7.4 km/h 80 % 0.00 in /  0 mm
01:17 32.9 °F /  0.5 °C 27.1 °F /  -2.7 °C 30.27 in /  1024.9 hPa SE 2.9 mph /  4.7 km/h 3.5 mph /  5.6 km/h 79 % 0.00 in /  0 mm
01:22 32.9 °F /  0.5 °C 26.8 °F /  -2.9 °C 30.27 in /  1024.9 hPa SSE 2.8 mph /  4.5 km/h 4.6 mph /  7.4 km/h 78 % 0.00 in /  0 mm
01:27 33.0 °F /  0.6 °C 26.9 °F /  -2.8 °C 30.28 in /  1025.3 hPa SE 2.2 mph /  3.5 km/h 3.5 mph /  5.6 km/h 78 % 0.00 in /  0 mm
01:32 33.1 °F /  0.6 °C 27.0 °F /  -2.8 °C 30.28 in /  1025.3 hPa SE 2.4 mph /  3.9 km/h 3.5 mph /  5.6 km/h 78 % 0.00 in /  0 mm
01:37 33.2 °F /  0.7 °C 26.8 °F /  -2.9 °C 30.27 in /  1024.9 hPa SE 1.9 mph /  3.1 km/h 3.5 mph /  5.6 km/h 77 % 0.00 in /  0 mm
01:42 33.2 °F /  0.7 °C 26.8 °F /  -2.9 °C 30.27 in /  1024.9 hPa SSE 0.3 mph /  0.5 km/h 2.3 mph /  3.7 km/h 77 % 0.00 in /  0 mm
01:47 33.2 °F /  0.7 °C 26.8 °F /  -2.9 °C 30.27 in /  1024.9 hPa SE 1.9 mph /  3.1 km/h 3.5 mph /  5.6 km/h 77 % 0.00 in /  0 mm
01:57 33.1 °F /  0.6 °C 26.7 °F /  -2.9 °C 30.27 in /  1024.9 hPa SSE 1.0 mph /  1.6 km/h 2.3 mph /  3.7 km/h 77 % 0.00 in /  0 mm
02:02 33.2 °F /  0.7 °C 26.8 °F /  -2.9 °C 30.27 in /  1024.9 hPa SSE 2.9 mph /  4.7 km/h 3.5 mph /  5.6 km/h 77 % 0.00 in /  0 mm
02:07 33.1 °F /  0.6 °C 26.7 °F /  -2.9 °C 30.27 in /  1024.9 hPa ESE 2.1 mph /  3.4 km/h 3.5 mph /  5.6 km/h 77 % 0.00 in /  0 mm
02:12 33.1 °F /  0.6 °C 26.7 °F /  -2.9 °C 30.27 in /  1024.9 hPa SE 3.1 mph /  5 km/h 5.0 mph /  8 km/h 77 % 0.00 in /  0 mm
02:18 33.1 °F /  0.6 °C 26.7 °F /  -2.9 °C 30.27 in /  1024.9 hPa SSE 1.0 mph /  1.6 km/h 3.5 mph /  5.6 km/h 77 % 0.00 in /  0 mm
02:23 33.1 °F /  0.6 °C 26.7 °F /  -2.9 °C 30.27 in /  1024.9 hPa SE 1.6 mph /  2.6 km/h 3.5 mph /  5.6 km/h 77 % 0.00 in /  0 mm
02:28 33.1 °F /  0.6 °C 26.4 °F /  -3.1 °C 30.27 in /  1024.9 hPa SE 3.1 mph /  5 km/h 3.5 mph /  5.6 km/h 76 % 0.00 in /  0 mm
02:33 33.1 °F /  0.6 °C 26.4 °F /  -3.1 °C 30.27 in /  1024.9 hPa SSE 3.4 mph /  5.5 km/h 5.8 mph /  9.3 km/h 76 % 0.00 in /  0 mm
02:38 33.2 °F /  0.7 °C 26.5 °F /  -3.1 °C 30.27 in /  1024.9 hPa SSE 4.1 mph /  6.6 km/h 6.0 mph /  9.7 km/h 76 % 0.00 in /  0 mm
02:43 33.3 °F /  0.7 °C 26.2 °F /  -3.2 °C 30.28 in /  1025.3 hPa SSE 2.2 mph /  3.5 km/h 3.5 mph /  5.6 km/h 75 % 0.00 in /  0 mm
02:48 33.3 °F /  0.7 °C 26.5 °F /  -3.1 °C 30.27 in /  1024.9 hPa SSE 2.5 mph /  4 km/h 5.8 mph /  9.3 km/h 76 % 0.00 in /  0 mm
02:53 33.3 °F /  0.7 °C 26.2 °F /  -3.2 °C 30.28 in /  1025.3 hPa SE 2.8 mph /  4.5 km/h 4.6 mph /  7.4 km/h 75 % 0.00 in /  0 mm
02:58 33.4 °F /  0.8 °C 26.3 °F /  -3.2 °C 30.27 in /  1024.9 hPa SSE 3.6 mph /  5.8 km/h 5.0 mph /  8 km/h 75 % 0.00 in /  0 mm
03:03 33.4 °F /  0.8 °C 26.3 °F /  -3.2 °C 30.28 in /  1025.3 hPa SE 3.4 mph /  5.5 km/h 4.6 mph /  7.4 km/h 75 % 0.00 in /  0 mm
03:08 33.4 °F /  0.8 °C 26.3 °F /  -3.2 °C 30.28 in /  1025.3 hPa SE 2.4 mph /  3.9 km/h 6.0 mph /  9.7 km/h 75 % 0.00 in /  0 mm
03:13 33.4 °F /  0.8 °C 26.3 °F /  -3.2 °C 30.28 in /  1025.3 hPa SSE 3.2 mph /  5.1 km/h 4.0 mph /  6.4 km/h 75 % 0.00 in /  0 mm
03:18 33.5 °F /  0.8 °C 26.4 °F /  -3.1 °C 30.27 in /  1024.9 hPa SSE 4.6 mph /  7.4 km/h 8.1 mph /  13 km/h 75 % 0.00 in /  0 mm
03:23 33.7 °F /  0.9 °C 26.6 °F /  -3 °C 30.27 in /  1024.9 hPa SE 2.4 mph /  3.9 km/h 8.1 mph /  13 km/h 75 % 0.00 in /  0 mm
03:28 33.9 °F /  1.1 °C 26.8 °F /  -2.9 °C 30.27 in /  1024.9 hPa SSE 3.5 mph /  5.6 km/h 5.8 mph /  9.3 km/h 75 % 0.00 in /  0 mm
03:33 34.0 °F /  1.1 °C 26.9 °F /  -2.8 °C 30.27 in /  1024.9 hPa SSE 2.9 mph /  4.7 km/h 4.6 mph /  7.4 km/h 75 % 0.00 in /  0 mm
03:38 34.0 °F /  1.1 °C 26.9 °F /  -2.8 °C 30.27 in /  1024.9 hPa SSE 0.9 mph /  1.4 km/h 3.5 mph /  5.6 km/h 75 % 0.00 in /  0 mm
03:43 34.0 °F /  1.1 °C 26.9 °F /  -2.8 °C 30.27 in /  1024.9 hPa SSE 2.3 mph /  3.7 km/h 3.5 mph /  5.6 km/h 75 % 0.00 in /  0 mm
03:48 34.0 °F /  1.1 °C 27.2 °F /  -2.7 °C 30.27 in /  1024.9 hPa SSE 1.4 mph /  2.3 km/h 3.5 mph /  5.6 km/h 76 % 0.00 in /  0 mm
03:53 34.0 °F /  1.1 °C 27.2 °F /  -2.7 °C 30.27 in /  1024.9 hPa SSE 3.6 mph /  5.8 km/h 4.6 mph /  7.4 km/h 76 % 0.00 in /  0 mm
03:59 34.0 °F /  1.1 °C 27.5 °F /  -2.5 °C 30.27 in /  1024.9 hPa SSE 2.3 mph /  3.7 km/h 4.6 mph /  7.4 km/h 77 % 0.00 in /  0 mm
04:04 34.1 °F /  1.2 °C 27.6 °F /  -2.4 °C 30.27 in /  1024.9 hPa SSE 2.7 mph /  4.3 km/h 4.6 mph /  7.4 km/h 77 % 0.00 in /  0 mm
04:09 34.1 °F /  1.2 °C 27.6 °F /  -2.4 °C 30.27 in /  1024.9 hPa SSE 2.2 mph /  3.5 km/h 3.5 mph /  5.6 km/h 77 % 0.00 in /  0 mm
04:14 34.1 °F /  1.2 °C 28.0 °F /  -2.2 °C 30.27 in /  1024.9 hPa Calm   3.5 mph /  5.6 km/h 78 % 0.00 in /  0 mm
04:19 34.1 °F /  1.2 °C 28.0 °F /  -2.2 °C 30.27 in /  1024.9 hPa SSE 1.0 mph /  1.6 km/h 2.3 mph /  3.7 km/h 78 % 0.00 in /  0 mm
04:24 34.1 °F /  1.2 °C 28.3 °F /  -2.1 °C 30.27 in /  1024.9 hPa SSE 0.7 mph /  1.1 km/h 2.3 mph /  3.7 km/h 79 % 0.00 in /  0 mm
04:29 34.1 °F /  1.2 °C 28.3 °F /  -2.1 °C 30.27 in /  1024.9 hPa SSE 1.9 mph /  3.1 km/h 3.5 mph /  5.6 km/h 79 % 0.00 in /  0 mm
04:34 34.1 °F /  1.2 °C 28.6 °F /  -1.9 °C 30.27 in /  1024.9 hPa SSE 1.2 mph /  1.9 km/h 3.5 mph /  5.6 km/h 80 % 0.00 in /  0 mm
04:39 34.1 °F /  1.2 °C 28.6 °F /  -1.9 °C 30.27 in /  1024.9 hPa SSE 2.5 mph /  4 km/h 3.5 mph /  5.6 km/h 80 % 0.00 in /  0 mm
04:44 34.1 °F /  1.2 °C 28.9 °F /  -1.7 °C 30.27 in /  1024.9 hPa SSE 2.1 mph /  3.4 km/h 2.3 mph /  3.7 km/h 81 % 0.00 in /  0 mm
04:49 34.1 °F /  1.2 °C 28.9 °F /  -1.7 °C 30.27 in /  1024.9 hPa SSE 1.5 mph /  2.4 km/h 3.5 mph /  5.6 km/h 81 % 0.00 in /  0 mm
04:54 34.1 °F /  1.2 °C 28.9 °F /  -1.7 °C 30.26 in /  1024.6 hPa SSE 2.3 mph /  3.7 km/h 2.3 mph /  3.7 km/h 81 % 0.00 in /  0 mm
05:00 34.1 °F /  1.2 °C 29.2 °F /  -1.6 °C 30.27 in /  1024.9 hPa Calm     82 % 0.00 in /  0 mm
05:05 34.1 °F /  1.2 °C 29.2 °F /  -1.6 °C 30.27 in /  1024.9 hPa Calm   3.5 mph /  5.6 km/h 82 % 0.00 in /  0 mm
05:10 34.1 °F /  1.2 °C 29.2 °F /  -1.6 °C 30.27 in /  1024.9 hPa SSE 0.3 mph /  0.5 km/h 2.3 mph /  3.7 km/h 82 % 0.00 in /  0 mm
05:15 34.1 °F /  1.2 °C 29.2 °F /  -1.6 °C 30.26 in /  1024.6 hPa Calm     82 % 0.00 in /  0 mm
05:20 34.0 °F /  1.1 °C 29.1 °F /  -1.6 °C 30.27 in /  1024.9 hPa SSE 0.2 mph /  0.3 km/h 1.2 mph /  1.9 km/h 82 % 0.00 in /  0 mm
05:25 33.9 °F /  1.1 °C 29.0 °F /  -1.7 °C 30.27 in /  1024.9 hPa Calm     82 % 0.00 in /  0 mm
05:30 33.9 °F /  1.1 °C 29.0 °F /  -1.7 °C 30.27 in /  1024.9 hPa Calm     82 % 0.00 in /  0 mm
05:35 33.8 °F /  1 °C 29.2 °F /  -1.6 °C 30.28 in /  1025.3 hPa Calm     83 % 0.00 in /  0 mm
05:40 33.7 °F /  0.9 °C 29.1 °F /  -1.6 °C 30.27 in /  1024.9 hPa South 2.7 mph /  4.3 km/h 3.5 mph /  5.6 km/h 83 % 0.00 in /  0 mm
05:45 33.5 °F /  0.8 °C 28.9 °F /  -1.7 °C 30.28 in /  1025.3 hPa South 0.8 mph /  1.3 km/h 2.3 mph /  3.7 km/h 83 % 0.00 in /  0 mm
05:50 33.4 °F /  0.8 °C 29.1 °F /  -1.6 °C 30.28 in /  1025.3 hPa Calm     84 % 0.00 in /  0 mm
05:55 33.4 °F /  0.8 °C 29.4 °F /  -1.4 °C 30.28 in /  1025.3 hPa Calm     85 % 0.00 in /  0 mm
06:00 33.3 °F /  0.7 °C 29.6 °F /  -1.3 °C 30.28 in /  1025.3 hPa Calm     86 % 0.00 in /  0 mm
06:05 33.2 °F /  0.7 °C 29.5 °F /  -1.4 °C 30.28 in /  1025.3 hPa Calm     86 % 0.00 in /  0 mm
06:10 33.2 °F /  0.7 °C 29.8 °F /  -1.2 °C 30.28 in /  1025.3 hPa Calm     87 % 0.00 in /  0 mm
06:15 33.1 °F /  0.6 °C 29.9 °F /  -1.2 °C 30.28 in /  1025.3 hPa Calm     88 % 0.00 in /  0 mm
06:20 33.0 °F /  0.6 °C 29.8 °F /  -1.2 °C 30.28 in /  1025.3 hPa Calm     88 % 0.00 in /  0 mm
06:25 32.9 °F /  0.5 °C 29.7 °F /  -1.3 °C 30.28 in /  1025.3 hPa Calm     88 % 0.00 in /  0 mm
06:30 32.7 °F /  0.4 °C 29.5 °F /  -1.4 °C 30.28 in /  1025.3 hPa Calm     88 % 0.00 in /  0 mm
06:35 32.6 °F /  0.3 °C 29.4 °F /  -1.4 °C 30.28 in /  1025.3 hPa Calm     88 % 0.00 in /  0 mm
06:41 32.5 °F /  0.3 °C 29.6 °F /  -1.3 °C 30.28 in /  1025.3 hPa Calm     89 % 0.00 in /  0 mm
06:46 32.3 °F /  0.2 °C 29.4 °F /  -1.4 °C 30.28 in /  1025.3 hPa Calm     89 % 0.00 in /  0 mm
06:51 32.2 °F /  0.1 °C 29.3 °F /  -1.5 °C 30.28 in /  1025.3 hPa Calm     89 % 0.00 in /  0 mm
06:56 32.1 °F /  0.1 °C 29.2 °F /  -1.6 °C 30.28 in /  1025.3 hPa Calm     89 % 0.00 in /  0 mm
07:01 32.0 °F /  0 °C 29.1 °F /  -1.6 °C 30.28 in /  1025.3 hPa Calm     89 % 0.00 in /  0 mm
07:06 31.9 °F /  -0.1 °C 29.0 °F /  -1.7 °C 30.28 in /  1025.3 hPa Calm     89 % 0.00 in /  0 mm
07:11 31.8 °F /  -0.1 °C 28.9 °F /  -1.7 °C 30.28 in /  1025.3 hPa Calm     89 % 0.00 in /  0 mm
07:16 31.8 °F /  -0.1 °C 28.9 °F /  -1.7 °C 30.28 in /  1025.3 hPa Calm     89 % 0.00 in /  0 mm
07:21 31.8 °F /  -0.1 °C 28.9 °F /  -1.7 °C 30.28 in /  1025.3 hPa Calm     89 % 0.00 in /  0 mm
07:26 31.9 °F /  -0.1 °C 29.3 °F /  -1.5 °C 30.28 in /  1025.3 hPa Calm     90 % 0.00 in /  0 mm
07:31 31.9 °F /  -0.1 °C 29.3 °F /  -1.5 °C 30.28 in /  1025.3 hPa Calm     90 % 0.00 in /  0 mm
07:36 32.0 °F /  0 °C 29.4 °F /  -1.4 °C 30.28 in /  1025.3 hPa Calm     90 % 0.00 in /  0 mm
07:41 32.0 °F /  0 °C 29.4 °F /  -1.4 °C 30.29 in /  1025.6 hPa Calm     90 % 0.00 in /  0 mm
07:46 32.0 °F /  0 °C 29.4 °F /  -1.4 °C 30.29 in /  1025.6 hPa Calm     90 % 0.00 in /  0 mm
07:51 32.1 °F /  0.1 °C 29.5 °F /  -1.4 °C 30.29 in /  1025.6 hPa Calm     90 % 0.00 in /  0 mm
07:56 32.3 °F /  0.2 °C 30.0 °F /  -1.1 °C 30.28 in /  1025.3 hPa Calm     91 % 0.00 in /  0 mm
08:01 32.3 °F /  0.2 °C 30.0 °F /  -1.1 °C 30.28 in /  1025.3 hPa Calm     91 % 0.00 in /  0 mm
08:06 32.5 °F /  0.3 °C 30.2 °F /  -1 °C 30.28 in /  1025.3 hPa Calm     91 % 0.00 in /  0 mm
08:11 33.0 °F /  0.6 °C 30.9 °F /  -0.6 °C 30.28 in /  1025.3 hPa Calm     92 % 0.00 in /  0 mm
08:16 33.5 °F /  0.8 °C 31.7 °F /  -0.2 °C 30.28 in /  1025.3 hPa Calm     93 % 0.00 in /  0 mm
08:21 34.1 °F /  1.2 °C 32.3 °F /  0.2 °C 30.28 in /  1025.3 hPa Calm     93 % 0.00 in /  0 mm
08:26 34.9 °F /  1.6 °C 33.3 °F /  0.7 °C 30.28 in /  1025.3 hPa Calm     94 % 0.00 in /  0 mm
08:31 35.6 °F /  2 °C 34.0 °F /  1.1 °C 30.29 in /  1025.6 hPa Calm     94 % 0.00 in /  0 mm
08:36 36.3 °F /  2.4 °C 34.7 °F /  1.5 °C 30.29 in /  1025.6 hPa Calm     94 % 0.00 in /  0 mm
08:42 37.0 °F /  2.8 °C 35.4 °F /  1.9 °C 30.29 in /  1025.6 hPa South 0.5 mph /  0.8 km/h 1.0 mph /  1.6 km/h 94 % 0.00 in /  0 mm
08:47 37.7 °F /  3.2 °C 36.1 °F /  2.3 °C 30.29 in /  1025.6 hPa ENE 2.2 mph /  3.5 km/h 3.5 mph /  5.6 km/h 94 % 0.00 in /  0 mm
08:52 38.4 °F /  3.6 °C 36.6 °F /  2.6 °C 30.29 in /  1025.6 hPa ENE 0.7 mph /  1.1 km/h 1.2 mph /  1.9 km/h 93 % 0.00 in /  0 mm
08:57 39.1 °F /  3.9 °C 37.2 °F /  2.9 °C 30.29 in /  1025.6 hPa ENE 0.1 mph /  0.2 km/h 1.2 mph /  1.9 km/h 93 % 0.00 in /  0 mm
09:02 39.9 °F /  4.4 °C 37.8 °F /  3.2 °C 30.29 in /  1025.6 hPa ENE 0.1 mph /  0.2 km/h 2.3 mph /  3.7 km/h 92 % 0.00 in /  0 mm
09:07 40.6 °F /  4.8 °C 37.9 °F /  3.3 °C 30.28 in /  1025.3 hPa ENE 0.5 mph /  0.8 km/h 2.0 mph /  3.2 km/h 90 % 0.00 in /  0 mm
09:12 41.3 °F /  5.2 °C 38.0 °F /  3.3 °C 30.28 in /  1025.3 hPa Calm     88 % 0.00 in /  0 mm
09:17 41.9 °F /  5.5 °C 38.3 °F /  3.5 °C 30.27 in /  1024.9 hPa ENE 0.5 mph /  0.8 km/h 2.0 mph /  3.2 km/h 87 % 0.00 in /  0 mm
09:22 42.7 °F /  5.9 °C 38.8 °F /  3.8 °C 30.26 in /  1024.6 hPa South 2.3 mph /  3.7 km/h 5.8 mph /  9.3 km/h 86 % 0.00 in /  0 mm
09:27 44.0 °F /  6.7 °C 38.5 °F /  3.6 °C 30.27 in /  1024.9 hPa South 7.8 mph /  12.6 km/h 11.5 mph /  18.5 km/h 81 % 0.00 in /  0 mm
09:32 44.9 °F /  7.2 °C 38.8 °F /  3.8 °C 30.28 in /  1025.3 hPa SSE 2.1 mph /  3.4 km/h 6.0 mph /  9.7 km/h 79 % 0.00 in /  0 mm
09:37 45.7 °F /  7.6 °C 38.9 °F /  3.8 °C 30.27 in /  1024.9 hPa SW 4.7 mph /  7.6 km/h 7.0 mph /  11.3 km/h 77 % 0.00 in /  0 mm
09:42 46.4 °F /  8 °C 39.2 °F /  4 °C 30.27 in /  1024.9 hPa SW 3.2 mph /  5.1 km/h 8.1 mph /  13 km/h 76 % 0.00 in /  0 mm
09:47 47.1 °F /  8.4 °C 39.2 °F /  4 °C 30.27 in /  1024.9 hPa SSW 5.4 mph /  8.7 km/h 9.2 mph /  14.8 km/h 74 % 0.00 in /  0 mm
09:52 47.6 °F /  8.7 °C 39.0 °F /  3.9 °C 30.27 in /  1024.9 hPa SSE 6.2 mph /  10 km/h 10.4 mph /  16.7 km/h 72 % 0.00 in /  0 mm
09:58 48.0 °F /  8.9 °C 39.4 °F /  4.1 °C 30.26 in /  1024.6 hPa SSW 3.3 mph /  5.3 km/h 10.4 mph /  16.7 km/h 72 % 0.00 in /  0 mm
10:03 48.5 °F /  9.2 °C 39.5 °F /  4.2 °C 30.26 in /  1024.6 hPa SSW 4.3 mph /  6.9 km/h 11.5 mph /  18.5 km/h 71 % 0.00 in /  0 mm
10:08 48.8 °F /  9.3 °C 39.4 °F /  4.1 °C 30.26 in /  1024.6 hPa SW 6.5 mph /  10.5 km/h 11.5 mph /  18.5 km/h 70 % 0.00 in /  0 mm
10:13 49.0 °F /  9.4 °C 39.6 °F /  4.2 °C 30.26 in /  1024.6 hPa SSW 8.1 mph /  13 km/h 12.7 mph /  20.4 km/h 70 % 0.00 in /  0 mm
10:18 49.2 °F /  9.6 °C 39.5 °F /  4.2 °C 30.25 in /  1024.3 hPa SSW 5.4 mph /  8.7 km/h 10.4 mph /  16.7 km/h 69 % 0.00 in /  0 mm
10:23 49.6 °F /  9.8 °C 40.2 °F /  4.6 °C 30.25 in /  1024.3 hPa South 5.8 mph /  9.3 km/h 16.1 mph /  25.9 km/h 70 % 0.00 in /  0 mm
10:28 49.8 °F /  9.9 °C 40.0 °F /  4.4 °C 30.25 in /  1024.3 hPa SSE 2.1 mph /  3.4 km/h 5.8 mph /  9.3 km/h 69 % 0.00 in /  0 mm
10:33 50.0 °F /  10 °C 40.2 °F /  4.6 °C 30.26 in /  1024.6 hPa SSW 6.2 mph /  10 km/h 8.1 mph /  13 km/h 69 % 0.00 in /  0 mm
10:38 50.4 °F /  10.2 °C 40.6 °F /  4.8 °C 30.26 in /  1024.6 hPa SSW 7.6 mph /  12.2 km/h 11.5 mph /  18.5 km/h 69 % 0.00 in /  0 mm
10:43 50.7 °F /  10.4 °C 40.1 °F /  4.5 °C 30.26 in /  1024.6 hPa SSW 6.1 mph /  9.8 km/h 11.5 mph /  18.5 km/h 67 % 0.00 in /  0 mm
10:48 51.1 °F /  10.6 °C 41.3 °F /  5.2 °C 30.25 in /  1024.3 hPa South 5.3 mph /  8.5 km/h 12.0 mph /  19.3 km/h 69 % 0.00 in /  0 mm
10:53 51.3 °F /  10.7 °C 40.7 °F /  4.8 °C 30.25 in /  1024.3 hPa South 6.7 mph /  10.8 km/h 13.8 mph /  22.2 km/h 67 % 0.00 in /  0 mm
10:58 51.7 °F /  10.9 °C 41.5 °F /  5.3 °C 30.25 in /  1024.3 hPa SW 3.4 mph /  5.5 km/h 9.2 mph /  14.8 km/h 68 % 0.00 in /  0 mm
11:03 52.3 °F /  11.3 °C 41.7 °F /  5.4 °C 30.24 in /  1023.9 hPa SSW 7.2 mph /  11.6 km/h 10.4 mph /  16.7 km/h 67 % 0.00 in /  0 mm
11:09 52.5 °F /  11.4 °C 41.5 °F /  5.3 °C 30.24 in /  1023.9 hPa SW 10.7 mph /  17.2 km/h 16.0 mph /  25.7 km/h 66 % 0.00 in /  0 mm
11:14 52.6 °F /  11.4 °C 41.6 °F /  5.3 °C 30.24 in /  1023.9 hPa SSW 8.2 mph /  13.2 km/h 11.5 mph /  18.5 km/h 66 % 0.00 in /  0 mm
11:19 52.5 °F /  11.4 °C 41.5 °F /  5.3 °C 30.23 in /  1023.6 hPa South 5.9 mph /  9.5 km/h 10.4 mph /  16.7 km/h 66 % 0.00 in /  0 mm
11:24 51.9 °F /  11.1 °C 40.9 °F /  4.9 °C 30.24 in /  1023.9 hPa SW 5.7 mph /  9.2 km/h 10.4 mph /  16.7 km/h 66 % 0.00 in /  0 mm
11:29 51.5 °F /  10.8 °C 40.9 °F /  4.9 °C 30.24 in /  1023.9 hPa WSW 5.8 mph /  9.3 km/h 12.0 mph /  19.3 km/h 67 % 0.00 in /  0 mm
11:34 51.1 °F /  10.6 °C 40.5 °F /  4.7 °C 30.23 in /  1023.6 hPa South 4.8 mph /  7.7 km/h 10.4 mph /  16.7 km/h 67 % 0.00 in /  0 mm
11:39 50.9 °F /  10.5 °C 41.1 °F /  5.1 °C 30.23 in /  1023.6 hPa SW 3.5 mph /  5.6 km/h 8.1 mph /  13 km/h 69 % 0.00 in /  0 mm
11:44 50.9 °F /  10.5 °C 41.5 °F /  5.3 °C 30.23 in /  1023.6 hPa SSW 1.0 mph /  1.6 km/h 3.5 mph /  5.6 km/h 70 % 0.00 in /  0 mm
11:49 51.0 °F /  10.6 °C 41.2 °F /  5.1 °C 30.23 in /  1023.6 hPa South 4.6 mph /  7.4 km/h 6.9 mph /  11.1 km/h 69 % 0.00 in /  0 mm
11:54 51.0 °F /  10.6 °C 41.6 °F /  5.3 °C 30.22 in /  1023.2 hPa SSW 4.7 mph /  7.6 km/h 9.2 mph /  14.8 km/h 70 % 0.00 in /  0 mm
11:59 51.0 °F /  10.6 °C 41.6 °F /  5.3 °C 30.22 in /  1023.2 hPa South 3.0 mph /  4.8 km/h 6.9 mph /  11.1 km/h 70 % 0.00 in /  0 mm
12:04 51.0 °F /  10.6 °C 41.9 °F /  5.5 °C 30.21 in /  1022.9 hPa WSW 5.6 mph /  9 km/h 9.2 mph /  14.8 km/h 71 % 0.00 in /  0 mm
12:09 51.0 °F /  10.6 °C 41.9 °F /  5.5 °C 30.21 in /  1022.9 hPa South 5.8 mph /  9.3 km/h 11.5 mph /  18.5 km/h 71 % 0.00 in /  0 mm
12:14 50.9 °F /  10.5 °C 41.8 °F /  5.4 °C 30.21 in /  1022.9 hPa South 5.5 mph /  8.9 km/h 8.1 mph /  13 km/h 71 % 0.00 in /  0 mm
12:19 50.9 °F /  10.5 °C 41.8 °F /  5.4 °C 30.20 in /  1022.6 hPa South 4.6 mph /  7.4 km/h 11.5 mph /  18.5 km/h 71 % 0.00 in /  0 mm
12:25 51.0 °F /  10.6 °C 41.9 °F /  5.5 °C 30.19 in /  1022.2 hPa SSE 5.1 mph /  8.2 km/h 7.0 mph /  11.3 km/h 71 % 0.00 in /  0 mm
12:30 50.9 °F /  10.5 °C 41.8 °F /  5.4 °C 30.19 in /  1022.2 hPa South 2.7 mph /  4.3 km/h 8.1 mph /  13 km/h 71 % 0.00 in /  0 mm
12:35 50.8 °F /  10.4 °C 41.7 °F /  5.4 °C 30.18 in /  1021.9 hPa SW 7.4 mph /  11.9 km/h 11.5 mph /  18.5 km/h 71 % 0.00 in /  0 mm
12:40 50.7 °F /  10.4 °C 42.0 °F /  5.6 °C 30.18 in /  1021.9 hPa South 4.2 mph /  6.8 km/h 9.2 mph /  14.8 km/h 72 % 0.00 in /  0 mm
12:45 50.7 °F /  10.4 °C 42.4 °F /  5.8 °C 30.18 in /  1021.9 hPa South 6.0 mph /  9.7 km/h 10.4 mph /  16.7 km/h 73 % 0.00 in /  0 mm
12:50 50.7 °F /  10.4 °C 42.4 °F /  5.8 °C 30.18 in /  1021.9 hPa South 4.4 mph /  7.1 km/h 6.9 mph /  11.1 km/h 73 % 0.00 in /  0 mm
12:55 50.7 °F /  10.4 °C 42.4 °F /  5.8 °C 30.18 in /  1021.9 hPa South 7.2 mph /  11.6 km/h 11.0 mph /  17.7 km/h 73 % 0.00 in /  0 mm
13:00 50.5 °F /  10.3 °C 42.2 °F /  5.7 °C 30.18 in /  1021.9 hPa SW 4.1 mph /  6.6 km/h 6.9 mph /  11.1 km/h 73 % 0.00 in /  0 mm
13:05 50.5 °F /  10.3 °C 42.5 °F /  5.8 °C 30.18 in /  1021.9 hPa SSW 5.0 mph /  8 km/h 10.4 mph /  16.7 km/h 74 % 0.00 in /  0 mm
13:10 50.4 °F /  10.2 °C 42.4 °F /  5.8 °C 30.17 in /  1021.6 hPa SSE 1.6 mph /  2.6 km/h 3.5 mph /  5.6 km/h 74 % 0.00 in /  0 mm
13:15 50.4 °F /  10.2 °C 42.8 °F /  6 °C 30.16 in /  1021.2 hPa South 4.8 mph /  7.7 km/h 7.0 mph /  11.3 km/h 75 % 0.00 in /  0 mm
13:20 50.4 °F /  10.2 °C 42.8 °F /  6 °C 30.16 in /  1021.2 hPa WSW 5.1 mph /  8.2 km/h 8.1 mph /  13 km/h 75 % 0.00 in /  0 mm
13:25 50.3 °F /  10.2 °C 43.0 °F /  6.1 °C 30.16 in /  1021.2 hPa South 4.9 mph /  7.9 km/h 8.1 mph /  13 km/h 76 % 0.00 in /  0 mm
13:30 50.4 °F /  10.2 °C 43.1 °F /  6.2 °C 30.16 in /  1021.2 hPa SSW 4.1 mph /  6.6 km/h 6.9 mph /  11.1 km/h 76 % 0.00 in /  0 mm
13:35 50.3 °F /  10.2 °C 43.0 °F /  6.1 °C 30.16 in /  1021.2 hPa SSE 3.4 mph /  5.5 km/h 4.6 mph /  7.4 km/h 76 % 0.00 in /  0 mm
13:40 50.2 °F /  10.1 °C 43.3 °F /  6.3 °C 30.15 in /  1020.9 hPa WSW 4.1 mph /  6.6 km/h 6.9 mph /  11.1 km/h 77 % 0.00 in /  0 mm
13:45 50.1 °F /  10.1 °C 43.2 °F /  6.2 °C 30.16 in /  1021.2 hPa SSW 6.6 mph /  10.6 km/h 11.5 mph /  18.5 km/h 77 % 0.00 in /  0 mm
13:51 50.0 °F /  10 °C 43.1 °F /  6.2 °C 30.15 in /  1020.9 hPa SSW 6.0 mph /  9.7 km/h 14.0 mph /  22.5 km/h 77 % 0.00 in /  0 mm
13:56 49.9 °F /  9.9 °C 43.3 °F /  6.3 °C 30.15 in /  1020.9 hPa SSW 7.0 mph /  11.3 km/h 13.0 mph /  20.9 km/h 78 % 0.00 in /  0 mm
14:01 49.8 °F /  9.9 °C 43.2 °F /  6.2 °C 30.15 in /  1020.9 hPa SSW 6.0 mph /  9.7 km/h 11.5 mph /  18.5 km/h 78 % 0.00 in /  0 mm
14:06 49.7 °F /  9.8 °C 43.5 °F /  6.4 °C 30.15 in /  1020.9 hPa SSW 5.6 mph /  9 km/h 8.1 mph /  13 km/h 79 % 0.00 in /  0 mm
14:11 49.7 °F /  9.8 °C 43.5 °F /  6.4 °C 30.14 in /  1020.5 hPa South 5.6 mph /  9 km/h 9.2 mph /  14.8 km/h 79 % 0.00 in /  0 mm
14:16 49.7 °F /  9.8 °C 43.5 °F /  6.4 °C 30.14 in /  1020.5 hPa South 2.4 mph /  3.9 km/h 6.9 mph /  11.1 km/h 79 % 0.00 in /  0 mm
14:26 49.7 °F /  9.8 °C 43.8 °F /  6.6 °C 30.14 in /  1020.5 hPa WSW 3.2 mph /  5.1 km/h 4.6 mph /  7.4 km/h 80 % 0.00 in /  0 mm
14:31 49.7 °F /  9.8 °C 43.8 °F /  6.6 °C 30.15 in /  1020.9 hPa South 3.8 mph /  6.1 km/h 7.0 mph /  11.3 km/h 80 % 0.00 in /  0 mm
14:36 49.8 °F /  9.9 °C 43.9 °F /  6.6 °C 30.15 in /  1020.9 hPa SSW 2.2 mph /  3.5 km/h 3.5 mph /  5.6 km/h 80 % 0.00 in /  0 mm
14:41 49.8 °F /  9.9 °C 43.9 °F /  6.6 °C 30.15 in /  1020.9 hPa SW 1.1 mph /  1.8 km/h 3.5 mph /  5.6 km/h 80 % 0.00 in /  0 mm
14:46 49.8 °F /  9.9 °C 43.9 °F /  6.6 °C 30.15 in /  1020.9 hPa WSW 3.2 mph /  5.1 km/h 4.6 mph /  7.4 km/h 80 % 0.00 in /  0 mm
14:51 49.7 °F /  9.8 °C 44.1 °F /  6.7 °C 30.14 in /  1020.5 hPa South 5.3 mph /  8.5 km/h 12.7 mph /  20.4 km/h 81 % 0.00 in /  0 mm
14:56 49.7 °F /  9.8 °C 44.1 °F /  6.7 °C 30.15 in /  1020.9 hPa SSW 5.6 mph /  9 km/h 10.4 mph /  16.7 km/h 81 % 0.00 in /  0 mm
15:01 49.6 °F /  9.8 °C 44.0 °F /  6.7 °C 30.15 in /  1020.9 hPa South 3.7 mph /  6 km/h 6.9 mph /  11.1 km/h 81 % 0.00 in /  0 mm
15:06 49.6 °F /  9.8 °C 44.3 °F /  6.8 °C 30.15 in /  1020.9 hPa SW 2.5 mph /  4 km/h 9.0 mph /  14.5 km/h 82 % 0.00 in /  0 mm
15:11 49.6 °F /  9.8 °C 44.3 °F /  6.8 °C 30.15 in /  1020.9 hPa SSE 4.9 mph /  7.9 km/h 10.4 mph /  16.7 km/h 82 % 0.00 in /  0 mm
15:16 49.6 °F /  9.8 °C 44.3 °F /  6.8 °C 30.14 in /  1020.5 hPa South 3.9 mph /  6.3 km/h 4.6 mph /  7.4 km/h 82 % 0.00 in /  0 mm
15:21 49.6 °F /  9.8 °C 44.3 °F /  6.8 °C 30.14 in /  1020.5 hPa SW 5.0 mph /  8 km/h 11.0 mph /  17.7 km/h 82 % 0.00 in /  0 mm
15:27 49.6 °F /  9.8 °C 44.6 °F /  7 °C 30.14 in /  1020.5 hPa SSW 3.9 mph /  6.3 km/h 8.1 mph /  13 km/h 83 % 0.00 in /  0 mm
15:32 49.6 °F /  9.8 °C 44.3 °F /  6.8 °C 30.14 in /  1020.5 hPa West 2.9 mph /  4.7 km/h 8.1 mph /  13 km/h 82 % 0.00 in /  0 mm
15:37 49.6 °F /  9.8 °C 44.6 °F /  7 °C 30.14 in /  1020.5 hPa SSW 1.8 mph /  2.9 km/h 8.0 mph /  12.9 km/h 83 % 0.00 in /  0 mm
15:42 49.5 °F /  9.7 °C 44.6 °F /  7 °C 30.14 in /  1020.5 hPa SW 2.7 mph /  4.3 km/h 8.1 mph /  13 km/h 83 % 0.00 in /  0 mm
15:47 49.5 °F /  9.7 °C 44.6 °F /  7 °C 30.14 in /  1020.5 hPa SSW 3.0 mph /  4.8 km/h 5.8 mph /  9.3 km/h 83 % 0.00 in /  0 mm
15:52 49.5 °F /  9.7 °C 44.6 °F /  7 °C 30.14 in /  1020.5 hPa SW 0.9 mph /  1.4 km/h 3.5 mph /  5.6 km/h 83 % 0.00 in /  0 mm
15:57 49.4 °F /  9.7 °C 44.8 °F /  7.1 °C 30.14 in /  1020.5 hPa SSW 4.6 mph /  7.4 km/h 7.0 mph /  11.3 km/h 84 % 0.00 in /  0 mm
16:02 49.3 °F /  9.6 °C 44.7 °F /  7.1 °C 30.14 in /  1020.5 hPa SSW 3.5 mph /  5.6 km/h 8.0 mph /  12.9 km/h 84 % 0.00 in /  0 mm
16:07 49.2 °F /  9.6 °C 44.6 °F /  7 °C 30.14 in /  1020.5 hPa SSW 3.4 mph /  5.5 km/h 4.6 mph /  7.4 km/h 84 % 0.00 in /  0 mm
16:12 49.2 °F /  9.6 °C 44.6 °F /  7 °C 30.14 in /  1020.5 hPa SW 0.8 mph /  1.3 km/h 8.1 mph /  13 km/h 84 % 0.00 in /  0 mm
16:17 49.2 °F /  9.6 °C 44.9 °F /  7.2 °C 30.13 in /  1020.2 hPa SSW 4.0 mph /  6.4 km/h 10.4 mph /  16.7 km/h 85 % 0.00 in /  0 mm
16:22 49.1 °F /  9.5 °C 44.8 °F /  7.1 °C 30.14 in /  1020.5 hPa SSW 3.2 mph /  5.1 km/h 6.9 mph /  11.1 km/h 85 % 0.00 in /  0 mm
Crab Meadow Weather
Compliments of Weather Underground - 2.5 mb

Script developed by  Jim McMurry - jmcmurry@mwt.net Adapted for the template by  Wim van der Kuil - Leuven-Template.eu

Clouds: Mostly sunny and mostly clear indicate the same amount of cloud coverage - about 25 percent. Mostly sunny is used during the daytime, and mostly clear is used at night when there is no sun.